GVAC

Amílcar Cabral International Airport

Espargos, Cape Verde
METAR GVAC 212300Z 01010KT 9999 SCT014 25/21 Q1015 NOSIG
Observed Flight Rules
Aug-21 @ 23:00 UTC (46 minutes ago) Visual Flight Rules
Wind Visibility Clouds
10° at 10 knots 10,000+ meters
  • Scattered at 1,400' AGL
Temperatures Readings
Current 25°C / 77°F
Dewpoint 21°C / 70°F
Humidity 79%
Altimeter 29.97" Hg
Pressure 1015 hPa
Elevation 55
METAR GVAC 212300Z 01010KT 9999 SCT014 25/21 Q1015 NOSIG
Observed Flight Rules
Aug-21 @ 23:00 UTC
(46 minutes ago)
VFR
Wind Visibility
10° at 10 knots 10,000+ meters
Clouds
  • Scattered at 1,400' AGL
Temperature Dewpoint
25°C / 77°F 21°C / 70°F
Humidity Altimeter Pressure
79% 29.97" Hg 1015 hPa